createdAt,value
2022-12-08T00:00:49.183Z,8.93
2022-12-08T00:03:20.302Z,9.47
2022-12-08T00:06:08.329Z,9.23
2022-12-08T00:08:56.170Z,9.10
2022-12-08T00:11:27.914Z,8.47
2022-12-08T00:13:59.078Z,8.77
2022-12-08T00:16:27.799Z,8.43
2022-12-08T00:18:58.427Z,8.13
2022-12-08T00:21:27.961Z,7.90
2022-12-08T00:23:58.950Z,8.20
2022-12-08T00:26:28.314Z,7.73
2022-12-08T00:28:56.874Z,8.47
2022-12-08T00:31:26.366Z,7.70
2022-12-08T00:33:54.923Z,8.33
2022-12-08T00:36:24.571Z,8.27
2022-12-08T00:38:53.757Z,8.30
2022-12-08T00:41:41.147Z,8.50
2022-12-08T00:44:12.799Z,8.33
2022-12-08T00:46:41.672Z,8.43
2022-12-08T00:49:13.632Z,8.50
2022-12-08T00:51:42.354Z,8.20
2022-12-08T00:54:12.060Z,8.13
2022-12-08T00:56:43.605Z,8.57
2022-12-08T00:59:12.094Z,8.47
2022-12-08T01:01:40.369Z,8.97
2022-12-08T01:04:15.592Z,9.20
2022-12-08T01:06:45.810Z,8.80
2022-12-08T01:09:16.831Z,8.13
2022-12-08T01:11:47.061Z,8.07
2022-12-08T01:14:15.837Z,7.40
2022-12-08T01:16:45.780Z,8.10
2022-12-08T01:19:15.813Z,7.80
2022-12-08T01:21:45.503Z,7.63
2022-12-08T01:24:15.944Z,8.07
2022-12-08T01:26:45.885Z,7.87
2022-12-08T01:29:14.800Z,7.63
2022-12-08T01:31:46.153Z,7.83
2022-12-08T01:34:14.459Z,8.30
2022-12-08T01:36:44.519Z,8.77
2022-12-08T01:39:16.841Z,8.30
2022-12-08T01:44:52.523Z,8.60
2022-12-08T01:47:20.914Z,8.70
2022-12-08T01:49:49.943Z,8.53
2022-12-08T01:52:26.973Z,9.37
2022-12-08T01:55:04.043Z,8.87
2022-12-08T01:57:40.637Z,8.37
2022-12-08T02:00:12.099Z,8.87
2022-12-08T02:02:48.901Z,9.40
2022-12-08T02:05:18.989Z,9.23
2022-12-08T02:07:49.950Z,9.03
2022-12-08T02:10:22.267Z,9.60
2022-12-08T02:12:55.672Z,9.40
2022-12-08T02:15:32.941Z,9.03
2022-12-08T02:18:14.192Z,9.53
2022-12-08T02:20:49.675Z,9.03
2022-12-08T02:23:28.407Z,8.63
2022-12-08T02:26:55.407Z,9.57
2022-12-08T02:30:04.219Z,9.87
2022-12-08T02:33:04.708Z,10.27
2022-12-08T02:35:43.404Z,9.57
2022-12-08T02:38:20.645Z,10.03
2022-12-08T02:40:50.111Z,9.73
2022-12-08T02:43:30.629Z,9.77
2022-12-08T02:46:02.764Z,9.63
2022-12-08T02:48:34.698Z,9.27
2022-12-08T02:51:06.347Z,10.17
2022-12-08T02:53:37.343Z,9.60
2022-12-08T02:56:29.806Z,9.37
2022-12-08T02:59:18.194Z,9.40
2022-12-08T03:02:03.288Z,9.20
2022-12-08T03:04:43.217Z,9.20
2022-12-08T03:07:23.765Z,9.77
2022-12-08T03:09:59.267Z,9.97
2022-12-08T03:12:35.713Z,9.73
2022-12-08T03:15:08.618Z,9.93
2022-12-08T03:17:40.498Z,9.33
2022-12-08T03:20:16.597Z,9.77
2022-12-08T03:22:52.091Z,9.57
2022-12-08T03:25:24.259Z,9.30
2022-12-08T03:27:55.830Z,10.53
2022-12-08T03:30:25.489Z,9.93
2022-12-08T03:33:05.079Z,9.53
2022-12-08T03:35:37.005Z,9.53
2022-12-08T03:38:09.172Z,9.20
2022-12-08T03:40:38.913Z,10.60
2022-12-08T03:43:08.834Z,9.70
2022-12-08T03:45:37.429Z,9.80
2022-12-08T03:48:10.165Z,9.87
2022-12-08T03:50:41.160Z,9.67
2022-12-08T03:53:18.995Z,9.23
2022-12-08T03:55:56.412Z,10.03
2022-12-08T03:58:32.986Z,10.40
2022-12-08T04:01:05.382Z,10.03
2022-12-08T04:03:34.688Z,10.27
2022-12-08T04:06:04.172Z,9.87
2022-12-08T04:12:15.607Z,9.77
2022-12-08T04:14:44.715Z,9.70
2022-12-08T04:17:19.486Z,10.03
2022-12-08T04:19:51.946Z,11.20
2022-12-08T04:22:20.229Z,9.77
2022-12-08T04:27:20.953Z,9.60
2022-12-08T04:29:49.267Z,10.17
2022-12-08T04:32:18.029Z,10.03
2022-12-08T04:34:46.329Z,9.43
2022-12-08T04:37:14.644Z,9.77
2022-12-08T04:39:42.875Z,10.03
2022-12-08T04:42:17.621Z,9.83
2022-12-08T04:44:47.248Z,10.00
2022-12-08T04:47:18.483Z,9.50
2022-12-08T04:53:22.343Z,10.83
2022-12-08T04:55:58.627Z,10.60
2022-12-08T04:58:42.238Z,12.53
2022-12-08T05:01:35.124Z,12.77
2022-12-08T05:04:08.417Z,12.93
2022-12-08T05:06:41.150Z,12.83
2022-12-08T05:09:11.187Z,13.80
2022-12-08T05:11:49.804Z,14.00
2022-12-08T05:14:48.073Z,13.40
2022-12-08T05:17:39.302Z,13.40
2022-12-08T05:20:10.363Z,14.23
2022-12-08T05:22:40.005Z,12.80
2022-12-08T05:25:10.367Z,12.87
2022-12-08T05:27:39.221Z,12.27
2022-12-08T05:30:13.308Z,11.60
2022-12-08T05:32:43.059Z,10.60
2022-12-08T05:35:29.313Z,9.83
2022-12-08T05:37:59.089Z,9.83
2022-12-08T05:40:27.431Z,10.20
2022-12-08T05:42:55.901Z,9.80
2022-12-08T05:45:27.955Z,9.83
2022-12-08T05:47:56.773Z,9.73
2022-12-08T05:50:25.008Z,8.60
2022-12-08T05:52:54.615Z,8.50
2022-12-08T06:01:36.836Z,9.53
2022-12-08T06:04:09.214Z,9.10
2022-12-08T06:06:39.617Z,9.83
2022-12-08T06:09:09.368Z,9.20
2022-12-08T06:11:37.785Z,9.00
2022-12-08T06:14:08.560Z,9.93
2022-12-08T06:16:38.278Z,10.27
2022-12-08T06:19:07.694Z,9.77
2022-12-08T06:22:05.110Z,10.20
2022-12-08T06:24:34.557Z,10.70
2022-12-08T06:27:04.078Z,11.67
2022-12-08T06:36:13.417Z,11.50
2022-12-08T06:39:20.869Z,11.40
2022-12-08T06:42:15.244Z,11.37
2022-12-08T06:44:44.618Z,11.70
2022-12-08T06:47:12.855Z,11.53
2022-12-08T06:49:42.921Z,12.43
2022-12-08T06:52:15.442Z,11.23
2022-12-08T06:55:24.618Z,12.20
2022-12-08T06:58:03.238Z,11.57
2022-12-08T07:00:33.803Z,11.73
2022-12-08T07:03:02.104Z,11.93
2022-12-08T07:05:34.414Z,11.30
2022-12-08T07:08:15.531Z,10.27
2022-12-08T07:13:46.550Z,11.57
2022-12-08T07:16:19.048Z,11.70
2022-12-08T07:18:47.566Z,11.50
2022-12-08T07:21:20.019Z,11.73
2022-12-08T07:23:55.935Z,13.10
2022-12-08T07:26:27.944Z,13.20
2022-12-08T07:28:56.189Z,11.83
2022-12-08T07:31:29.200Z,12.60
2022-12-08T07:34:03.563Z,12.60
2022-12-08T07:36:40.667Z,12.97
2022-12-08T07:39:09.900Z,13.37
2022-12-08T07:41:43.458Z,14.10
2022-12-08T07:44:13.259Z,14.40
2022-12-08T07:46:57.540Z,14.33
2022-12-08T07:49:32.257Z,13.97
2022-12-08T07:52:01.886Z,13.93
2022-12-08T07:54:30.218Z,14.00
2022-12-08T07:57:04.509Z,15.07
2022-12-08T07:59:33.527Z,13.97
2022-12-08T08:02:23.476Z,12.43
2022-12-08T08:04:58.141Z,12.43
2022-12-08T08:07:32.835Z,12.07
2022-12-08T08:10:01.103Z,11.80
2022-12-08T08:12:32.733Z,12.30
2022-12-08T08:15:05.621Z,11.37
2022-12-08T08:17:34.677Z,11.27
2022-12-08T08:20:04.905Z,10.60
2022-12-08T08:22:38.678Z,10.40
2022-12-08T08:25:13.446Z,10.87
2022-12-08T08:27:46.627Z,10.57
2022-12-08T08:30:20.395Z,10.97
2022-12-08T08:32:54.901Z,9.93
2022-12-08T08:35:28.973Z,11.23
2022-12-08T08:37:59.994Z,10.20
2022-12-08T08:40:28.402Z,9.50
2022-12-08T08:43:01.886Z,10.47
2022-12-08T08:45:33.680Z,10.03
2022-12-08T08:48:04.625Z,10.33
2022-12-08T08:50:38.988Z,9.37
2022-12-08T08:53:12.319Z,10.30
2022-12-08T08:55:45.803Z,10.23
2022-12-08T08:58:16.167Z,9.50
2022-12-08T09:00:58.428Z,9.00
2022-12-08T09:03:41.669Z,9.93
2022-12-08T09:06:15.384Z,9.93
2022-12-08T09:09:22.839Z,12.03
2022-12-08T09:15:10.240Z,10.83
2022-12-08T09:17:39.241Z,10.40
2022-12-08T09:20:18.074Z,11.03
2022-12-08T09:23:03.036Z,10.47
2022-12-08T09:25:41.106Z,10.83
2022-12-08T09:28:32.391Z,10.97
2022-12-08T09:31:24.528Z,10.67
2022-12-08T09:33:57.515Z,12.27
2022-12-08T09:36:45.697Z,10.60
2022-12-08T09:39:36.383Z,11.27
2022-12-08T09:42:12.942Z,9.50
2022-12-08T09:45:00.018Z,8.50
2022-12-08T09:47:36.064Z,9.23
2022-12-08T09:50:18.284Z,9.33
2022-12-08T09:53:02.927Z,8.80
2022-12-08T09:55:47.140Z,9.10
2022-12-08T09:58:27.732Z,8.87
2022-12-08T10:01:05.233Z,8.47
2022-12-08T10:03:42.471Z,7.63
2022-12-08T10:06:20.595Z,7.73
2022-12-08T10:09:03.890Z,7.83
2022-12-08T10:12:09.967Z,7.67
2022-12-08T10:14:56.895Z,7.67
2022-12-08T10:17:38.217Z,7.33
2022-12-08T10:20:19.500Z,7.73
2022-12-08T10:23:12.208Z,7.63
2022-12-08T10:25:46.900Z,7.43
2022-12-08T10:28:15.821Z,7.93
2022-12-08T10:30:45.478Z,7.87
2022-12-08T10:33:22.328Z,7.50
2022-12-08T10:35:53.605Z,7.43
2022-12-08T10:41:30.615Z,7.40
2022-12-08T10:44:07.100Z,7.10
2022-12-08T10:46:42.718Z,7.67
2022-12-08T10:49:44.763Z,7.20
2022-12-08T10:52:24.192Z,7.47
2022-12-08T10:54:59.879Z,7.03
2022-12-08T10:57:29.363Z,7.43
2022-12-08T11:06:38.122Z,6.23
2022-12-08T11:09:28.275Z,6.10
2022-12-08T11:12:04.084Z,5.70
2022-12-08T11:14:54.666Z,7.37
2022-12-08T11:17:28.475Z,7.03
2022-12-08T11:20:04.772Z,6.30
2022-12-08T11:22:44.526Z,6.47
2022-12-08T11:28:09.003Z,6.77
2022-12-08T11:30:53.429Z,6.60
2022-12-08T11:36:14.966Z,6.57
2022-12-08T11:38:54.872Z,6.73
2022-12-08T11:41:28.375Z,7.40
2022-12-08T11:44:07.241Z,6.33
2022-12-08T11:46:42.676Z,5.90
2022-12-08T11:49:16.136Z,6.30
2022-12-08T11:51:51.951Z,7.00
2022-12-08T11:54:41.017Z,6.00
2022-12-08T11:57:16.498Z,6.13
2022-12-08T11:59:47.260Z,6.20
2022-12-08T12:02:26.942Z,5.70
2022-12-08T12:05:07.197Z,5.70
2022-12-08T12:08:12.404Z,5.80
2022-12-08T12:11:00.921Z,5.80
2022-12-08T12:14:17.964Z,5.83
2022-12-08T12:17:08.496Z,5.37
2022-12-08T12:19:41.307Z,6.10
2022-12-08T12:22:27.011Z,5.10
2022-12-08T12:24:56.650Z,5.77
2022-12-08T12:27:34.548Z,6.00
2022-12-08T12:30:12.466Z,4.70
2022-12-08T12:32:48.951Z,6.00
2022-12-08T12:35:43.218Z,6.37
2022-12-08T12:38:45.009Z,5.93
2022-12-08T12:41:37.830Z,5.50
2022-12-08T12:44:48.739Z,6.00
2022-12-08T12:48:03.128Z,6.40
2022-12-08T12:50:50.264Z,6.17
2022-12-08T12:53:58.197Z,8.07
2022-12-08T12:56:56.607Z,5.60
2022-12-08T12:59:48.986Z,5.73
2022-12-08T13:02:26.187Z,5.17
2022-12-08T13:05:10.831Z,5.77
2022-12-08T13:07:48.790Z,5.83
2022-12-08T13:10:25.490Z,5.43
2022-12-08T13:13:26.883Z,5.23
2022-12-08T13:15:58.478Z,5.47
2022-12-08T13:18:56.935Z,5.83
2022-12-08T13:21:41.141Z,5.27
2022-12-08T13:24:38.327Z,5.93
2022-12-08T13:27:36.531Z,5.30
2022-12-08T13:31:01.497Z,5.87
2022-12-08T13:33:53.734Z,6.13
2022-12-08T13:36:32.968Z,6.17
2022-12-08T13:39:08.265Z,6.07
2022-12-08T13:41:40.487Z,6.00
2022-12-08T13:47:33.356Z,6.87
2022-12-08T13:59:35.540Z,5.53
2022-12-08T14:02:15.823Z,6.57
2022-12-08T14:07:45.401Z,6.73
2022-12-08T14:10:22.048Z,6.13
2022-12-08T14:13:01.380Z,6.07
2022-12-08T14:15:41.027Z,6.63
2022-12-08T14:18:37.270Z,7.20
2022-12-08T14:21:21.660Z,6.47
2022-12-08T14:23:56.557Z,6.90
2022-12-08T14:26:26.287Z,6.43
2022-12-08T14:28:54.829Z,6.53
2022-12-08T14:31:28.525Z,7.27
2022-12-08T14:33:57.466Z,6.77
2022-12-08T14:36:35.296Z,7.03
2022-12-08T14:39:20.393Z,7.00
2022-12-08T14:45:54.352Z,7.83
2022-12-08T14:48:30.971Z,8.20
2022-12-08T14:51:15.494Z,7.43
2022-12-08T14:59:44.794Z,6.00
2022-12-08T15:02:26.631Z,6.03
2022-12-08T15:05:02.859Z,5.40
2022-12-08T15:07:43.082Z,5.63
2022-12-08T15:10:23.709Z,5.50
2022-12-08T15:16:32.340Z,5.40
2022-12-08T15:19:20.107Z,4.87
2022-12-08T15:21:54.875Z,4.77
2022-12-08T15:24:39.396Z,6.50
2022-12-08T15:27:10.642Z,5.83
2022-12-08T15:29:40.622Z,5.83
2022-12-08T15:32:12.595Z,5.77
2022-12-08T15:34:48.727Z,6.33
2022-12-08T15:37:29.301Z,6.53
2022-12-08T15:40:29.402Z,6.57
2022-12-08T15:43:07.525Z,6.47
2022-12-08T15:45:51.819Z,7.23
2022-12-08T15:48:31.199Z,7.10
2022-12-08T15:54:14.309Z,9.97
2022-12-08T15:57:17.481Z,11.00
2022-12-08T15:59:42.537Z,8.30
2022-12-08T16:02:23.234Z,8.03
2022-12-08T16:12:04.634Z,7.30
2022-12-08T16:17:18.544Z,7.50
2022-12-08T16:19:48.219Z,8.87
2022-12-08T16:25:20.729Z,8.83
2022-12-08T16:28:08.163Z,10.50
2022-12-08T16:30:50.148Z,9.10
2022-12-08T16:33:25.329Z,9.40
2022-12-08T16:35:53.800Z,8.30
2022-12-08T16:38:23.653Z,9.10
2022-12-08T16:41:15.787Z,9.43
2022-12-08T16:43:48.554Z,10.10
2022-12-08T16:46:43.409Z,9.47
2022-12-08T16:51:59.371Z,9.87
2022-12-08T16:54:27.831Z,9.93
2022-12-08T16:56:56.366Z,10.37
2022-12-08T16:59:27.329Z,9.53
2022-12-08T17:01:55.963Z,8.50
2022-12-08T17:04:32.303Z,4.17
2022-12-08T17:07:01.723Z,2.77
2022-12-08T17:09:32.064Z,2.80
2022-12-08T17:12:03.976Z,2.23
2022-12-08T17:14:37.674Z,2.47
2022-12-08T17:17:06.372Z,2.23
2022-12-08T17:19:35.389Z,2.60
2022-12-08T17:22:04.018Z,2.53
2022-12-08T17:24:32.988Z,2.60
2022-12-08T17:27:04.487Z,2.70
2022-12-08T17:29:35.139Z,2.97
2022-12-08T17:32:18.177Z,2.40
2022-12-08T17:34:46.861Z,2.40
2022-12-08T17:37:15.633Z,2.70
2022-12-08T17:39:44.130Z,2.50
2022-12-08T17:42:12.494Z,3.50
2022-12-08T17:44:42.383Z,2.80
2022-12-08T17:47:11.028Z,3.00
2022-12-08T17:49:39.470Z,3.67
2022-12-08T17:52:08.549Z,4.37
2022-12-08T17:54:37.210Z,4.07
2022-12-08T17:57:06.151Z,3.60
2022-12-08T17:59:34.879Z,3.40
2022-12-08T18:02:05.222Z,3.43
2022-12-08T18:04:33.713Z,3.70
2022-12-08T18:07:03.597Z,3.97
2022-12-08T18:09:32.890Z,3.90
2022-12-08T18:12:01.526Z,3.50
2022-12-08T18:14:30.131Z,3.67
2022-12-08T18:16:58.866Z,3.27
2022-12-08T18:19:29.710Z,4.30
2022-12-08T18:21:58.204Z,4.03
2022-12-08T18:24:27.585Z,4.70
2022-12-08T18:26:57.839Z,4.77
2022-12-08T18:29:26.471Z,5.70
2022-12-08T18:31:54.944Z,4.97
2022-12-08T18:34:23.703Z,5.60
2022-12-08T18:36:53.547Z,6.20
2022-12-08T18:39:26.308Z,6.50
2022-12-08T18:41:55.847Z,7.80
2022-12-08T18:44:25.503Z,8.20
2022-12-08T18:46:54.128Z,11.35
2022-12-08T18:49:22.576Z,8.97
2022-12-08T18:51:53.021Z,8.90
2022-12-08T18:54:27.702Z,7.87
2022-12-08T18:57:05.836Z,9.23
2022-12-08T18:59:34.671Z,9.50
2022-12-08T19:02:03.191Z,9.73
2022-12-08T19:04:34.710Z,9.60
2022-12-08T19:07:07.699Z,9.00
2022-12-08T19:09:36.400Z,9.53
2022-12-08T19:12:05.061Z,9.50
2022-12-08T19:14:34.970Z,9.17
2022-12-08T19:17:03.445Z,10.10
2022-12-08T19:19:32.190Z,9.37
2022-12-08T19:22:00.911Z,7.43
2022-12-08T19:24:32.405Z,6.60
2022-12-08T19:27:01.019Z,5.80
2022-12-08T19:29:29.583Z,5.23
2022-12-08T19:31:58.195Z,5.50
2022-12-08T19:34:26.620Z,5.60
2022-12-08T19:36:55.165Z,5.63
2022-12-08T19:39:42.405Z,5.30
2022-12-08T19:42:33.702Z,5.23
2022-12-08T19:45:05.625Z,5.87
2022-12-08T19:47:34.425Z,5.47
2022-12-08T19:50:20.181Z,5.30
2022-12-08T19:52:48.610Z,5.33
2022-12-08T19:55:17.236Z,4.13
2022-12-08T19:57:47.598Z,5.07
2022-12-08T20:00:16.808Z,4.17
2022-12-08T20:02:45.423Z,4.30
2022-12-08T20:05:14.389Z,4.33
2022-12-08T20:07:43.557Z,4.30
2022-12-08T20:10:17.721Z,4.87
2022-12-08T20:12:47.746Z,5.00
2022-12-08T20:15:16.216Z,5.57
2022-12-08T20:17:44.913Z,4.53
2022-12-08T20:20:18.448Z,5.23
2022-12-08T20:22:48.779Z,4.50
2022-12-08T20:25:17.269Z,5.67
2022-12-08T20:27:47.590Z,4.70
2022-12-08T20:30:17.369Z,3.50
2022-12-08T20:32:46.112Z,4.20
2022-12-08T20:35:15.842Z,5.03
2022-12-08T20:37:44.185Z,5.63
2022-12-08T20:40:13.635Z,5.87
2022-12-08T20:42:42.600Z,6.20
2022-12-08T20:45:12.567Z,5.90
2022-12-08T20:47:40.952Z,5.13
2022-12-08T20:50:10.835Z,5.93
2022-12-08T20:52:39.593Z,6.03
2022-12-08T20:55:09.355Z,6.30
2022-12-08T20:57:37.976Z,6.13
2022-12-08T21:00:08.016Z,6.13
2022-12-08T21:02:43.211Z,6.20
2022-12-08T21:05:14.301Z,6.53
2022-12-08T21:07:43.582Z,8.10
2022-12-08T21:10:12.356Z,6.63
2022-12-08T21:12:40.862Z,5.97
2022-12-08T21:15:12.366Z,6.73
2022-12-08T21:17:42.604Z,6.50
2022-12-08T21:20:12.154Z,6.00
2022-12-08T21:22:41.317Z,6.40
2022-12-08T21:25:10.632Z,7.27
2022-12-08T21:27:39.726Z,7.20
2022-12-08T21:30:10.539Z,7.80
2022-12-08T21:32:41.267Z,7.33
2022-12-08T21:35:10.756Z,7.57
2022-12-08T21:37:39.326Z,8.27
2022-12-08T21:40:09.232Z,7.80
2022-12-08T21:42:45.771Z,7.33
2022-12-08T21:45:16.754Z,7.10
2022-12-08T21:47:47.699Z,8.27
2022-12-08T21:50:16.831Z,7.50
2022-12-08T21:52:47.256Z,7.63
2022-12-08T21:55:20.715Z,7.93
2022-12-08T21:57:49.298Z,7.90
2022-12-08T22:00:18.879Z,7.47
2022-12-08T22:02:48.970Z,8.43
2022-12-08T22:05:17.672Z,7.97
2022-12-08T22:07:46.150Z,7.20
2022-12-08T22:10:14.723Z,7.33
2022-12-08T22:12:43.570Z,6.97
2022-12-08T22:15:12.765Z,6.13
2022-12-08T22:17:44.480Z,6.47
2022-12-08T22:20:16.397Z,6.97
2022-12-08T22:22:46.050Z,6.53
2022-12-08T22:25:14.573Z,7.33
2022-12-08T22:27:43.194Z,7.50
2022-12-08T22:30:12.609Z,8.37
2022-12-08T22:32:41.877Z,7.77
2022-12-08T22:35:12.079Z,8.00
2022-12-08T22:37:41.919Z,6.23
2022-12-08T22:40:12.257Z,6.33
2022-12-08T22:42:40.737Z,6.60
2022-12-08T22:45:10.489Z,5.67
2022-12-08T22:47:38.875Z,6.47
2022-12-08T22:50:08.811Z,7.30
2022-12-08T22:52:37.596Z,6.73
2022-12-08T22:55:08.640Z,6.53
2022-12-08T22:57:40.048Z,6.40
2022-12-08T23:00:11.981Z,6.23
2022-12-08T23:02:40.642Z,6.57
2022-12-08T23:05:09.766Z,6.90
2022-12-08T23:07:38.594Z,6.67
2022-12-08T23:10:10.837Z,6.77
2022-12-08T23:12:39.332Z,6.33
2022-12-08T23:15:09.153Z,6.23
2022-12-08T23:17:37.849Z,6.83
2022-12-08T23:20:07.587Z,6.30
2022-12-08T23:22:36.515Z,6.20
2022-12-08T23:25:05.363Z,6.97
2022-12-08T23:27:35.544Z,7.10
2022-12-08T23:30:04.645Z,6.87
2022-12-08T23:32:33.666Z,7.30
2022-12-08T23:35:02.288Z,6.60
2022-12-08T23:37:31.183Z,7.23
2022-12-08T23:40:00.421Z,7.10
2022-12-08T23:42:30.477Z,6.20
2022-12-08T23:45:00.878Z,6.63
2022-12-08T23:47:29.301Z,6.90
2022-12-08T23:49:58.149Z,7.43
2022-12-08T23:52:26.759Z,7.37
2022-12-08T23:54:55.132Z,7.20
2022-12-08T23:57:23.433Z,6.70
2022-12-08T23:59:51.737Z,6.60
